sensor_id;sensor_type;location;lat;lon;timestamp;P1;durP1;ratioP1;P2;durP2;ratioP2
3523;SDS011;1776;53.330;11.498;2023-01-01T00:01:55;12.80;;;6.67;;
3523;SDS011;1776;53.330;11.498;2023-01-01T00:04:20;9.10;;;6.40;;
3523;SDS011;1776;53.330;11.498;2023-01-01T00:06:45;14.00;;;7.60;;
3523;SDS011;1776;53.330;11.498;2023-01-01T00:09:11;10.67;;;6.60;;
3523;SDS011;1776;53.330;11.498;2023-01-01T00:11:55;10.80;;;6.73;;
3523;SDS011;1776;53.330;11.498;2023-01-01T00:14:20;13.87;;;6.00;;
3523;SDS011;1776;53.330;11.498;2023-01-01T00:16:45;8.40;;;4.80;;
3523;SDS011;1776;53.330;11.498;2023-01-01T00:19:11;5.60;;;3.90;;
3523;SDS011;1776;53.330;11.498;2023-01-01T00:21:36;7.43;;;5.10;;
3523;SDS011;1776;53.330;11.498;2023-01-01T00:24:01;8.40;;;3.63;;
3523;SDS011;1776;53.330;11.498;2023-01-01T00:26:27;8.07;;;4.13;;
3523;SDS011;1776;53.330;11.498;2023-01-01T00:28:52;8.43;;;3.70;;
3523;SDS011;1776;53.330;11.498;2023-01-01T00:31:18;6.00;;;3.63;;
3523;SDS011;1776;53.330;11.498;2023-01-01T00:33:48;6.70;;;3.20;;
3523;SDS011;1776;53.330;11.498;2023-01-01T00:36:17;6.97;;;4.07;;
3523;SDS011;1776;53.330;11.498;2023-01-01T00:38:43;6.70;;;3.77;;
3523;SDS011;1776;53.330;11.498;2023-01-01T00:41:10;8.83;;;5.03;;
3523;SDS011;1776;53.330;11.498;2023-01-01T00:43:37;11.90;;;5.17;;
3523;SDS011;1776;53.330;11.498;2023-01-01T00:46:03;11.10;;;4.83;;
3523;SDS011;1776;53.330;11.498;2023-01-01T00:48:29;9.00;;;5.03;;
3523;SDS011;1776;53.330;11.498;2023-01-01T00:50:54;15.37;;;6.50;;
3523;SDS011;1776;53.330;11.498;2023-01-01T00:53:20;12.13;;;5.00;;
3523;SDS011;1776;53.330;11.498;2023-01-01T00:55:46;12.93;;;5.00;;
3523;SDS011;1776;53.330;11.498;2023-01-01T00:58:12;8.50;;;5.33;;
3523;SDS011;1776;53.330;11.498;2023-01-01T01:00:38;10.67;;;4.87;;
3523;SDS011;1776;53.330;11.498;2023-01-01T01:03:03;8.67;;;5.07;;
3523;SDS011;1776;53.330;11.498;2023-01-01T01:05:29;5.20;;;3.30;;
3523;SDS011;1776;53.330;11.498;2023-01-01T01:07:56;10.23;;;5.03;;
3523;SDS011;1776;53.330;11.498;2023-01-01T01:10:21;9.07;;;5.07;;
3523;SDS011;1776;53.330;11.498;2023-01-01T01:12:47;9.57;;;5.20;;
3523;SDS011;1776;53.330;11.498;2023-01-01T01:15:13;19.50;;;4.80;;
3523;SDS011;1776;53.330;11.498;2023-01-01T01:17:39;11.23;;;6.00;;
3523;SDS011;1776;53.330;11.498;2023-01-01T01:20:05;6.77;;;4.40;;
3523;SDS011;1776;53.330;11.498;2023-01-01T01:22:31;8.53;;;4.27;;
3523;SDS011;1776;53.330;11.498;2023-01-01T01:24:58;7.33;;;3.40;;
3523;SDS011;1776;53.330;11.498;2023-01-01T01:27:24;13.00;;;4.70;;
3523;SDS011;1776;53.330;11.498;2023-01-01T01:29:49;10.70;;;3.80;;
3523;SDS011;1776;53.330;11.498;2023-01-01T01:32:14;8.60;;;3.80;;
3523;SDS011;1776;53.330;11.498;2023-01-01T01:34:39;10.00;;;4.07;;
3523;SDS011;1776;53.330;11.498;2023-01-01T01:37:05;14.63;;;4.50;;
3523;SDS011;1776;53.330;11.498;2023-01-01T01:39:30;6.67;;;3.97;;
3523;SDS011;1776;53.330;11.498;2023-01-01T01:41:56;9.33;;;4.00;;
3523;SDS011;1776;53.330;11.498;2023-01-01T01:50:06;11.73;;;3.80;;
3523;SDS011;1776;53.330;11.498;2023-01-01T01:52:33;13.20;;;5.40;;
3523;SDS011;1776;53.330;11.498;2023-01-01T01:55:02;13.13;;;4.37;;
3523;SDS011;1776;53.330;11.498;2023-01-01T01:57:31;9.77;;;4.13;;
3523;SDS011;1776;53.330;11.498;2023-01-01T01:59:57;13.70;;;4.57;;
3523;SDS011;1776;53.330;11.498;2023-01-01T02:02:34;7.40;;;3.93;;
3523;SDS011;1776;53.330;11.498;2023-01-01T02:05:03;8.77;;;4.33;;
3523;SDS011;1776;53.330;11.498;2023-01-01T02:07:29;10.33;;;4.87;;
3523;SDS011;1776;53.330;11.498;2023-01-01T02:09:57;13.70;;;5.40;;
3523;SDS011;1776;53.330;11.498;2023-01-01T02:12:23;13.63;;;4.70;;
3523;SDS011;1776;53.330;11.498;2023-01-01T02:14:50;10.80;;;4.97;;
3523;SDS011;1776;53.330;11.498;2023-01-01T02:17:20;11.23;;;4.80;;
3523;SDS011;1776;53.330;11.498;2023-01-01T02:20:06;13.30;;;5.40;;
3523;SDS011;1776;53.330;11.498;2023-01-01T02:28:34;9.13;;;5.83;;
3523;SDS011;1776;53.330;11.498;2023-01-01T02:31:09;18.53;;;7.13;;
3523;SDS011;1776;53.330;11.498;2023-01-01T02:33:40;10.77;;;4.90;;
3523;SDS011;1776;53.330;11.498;2023-01-01T02:36:08;8.37;;;5.40;;
3523;SDS011;1776;53.330;11.498;2023-01-01T02:38:36;8.17;;;5.30;;
3523;SDS011;1776;53.330;11.498;2023-01-01T02:43:36;10.90;;;5.30;;
3523;SDS011;1776;53.330;11.498;2023-01-01T02:46:06;12.00;;;5.43;;
3523;SDS011;1776;53.330;11.498;2023-01-01T02:48:54;13.60;;;5.30;;
3523;SDS011;1776;53.330;11.498;2023-01-01T02:53:56;13.53;;;4.80;;
3523;SDS011;1776;53.330;11.498;2023-01-01T02:59:14;8.60;;;4.10;;
3523;SDS011;1776;53.330;11.498;2023-01-01T03:02:09;14.10;;;4.77;;
3523;SDS011;1776;53.330;11.498;2023-01-01T03:05:09;8.57;;;4.00;;
3523;SDS011;1776;53.330;11.498;2023-01-01T03:07:48;13.50;;;5.00;;
3523;SDS011;1776;53.330;11.498;2023-01-01T03:13:02;8.07;;;4.40;;
3523;SDS011;1776;53.330;11.498;2023-01-01T03:15:31;11.83;;;4.80;;
3523;SDS011;1776;53.330;11.498;2023-01-01T03:18:14;19.13;;;5.80;;
3523;SDS011;1776;53.330;11.498;2023-01-01T03:20:47;14.70;;;4.80;;
3523;SDS011;1776;53.330;11.498;2023-01-01T03:23:17;8.03;;;4.93;;
3523;SDS011;1776;53.330;11.498;2023-01-01T03:25:48;9.10;;;5.00;;
3523;SDS011;1776;53.330;11.498;2023-01-01T03:28:17;10.03;;;5.53;;
3523;SDS011;1776;53.330;11.498;2023-01-01T03:30:46;15.40;;;4.53;;
3523;SDS011;1776;53.330;11.498;2023-01-01T03:33:16;6.93;;;4.10;;
3523;SDS011;1776;53.330;11.498;2023-01-01T03:35:51;8.87;;;5.10;;
3523;SDS011;1776;53.330;11.498;2023-01-01T03:38:27;12.10;;;5.50;;
3523;SDS011;1776;53.330;11.498;2023-01-01T03:41:00;10.80;;;4.93;;
3523;SDS011;1776;53.330;11.498;2023-01-01T03:43:53;12.63;;;5.77;;
3523;SDS011;1776;53.330;11.498;2023-01-01T03:46:37;8.33;;;4.53;;
3523;SDS011;1776;53.330;11.498;2023-01-01T03:49:04;10.47;;;5.13;;
3523;SDS011;1776;53.330;11.498;2023-01-01T03:57:06;9.07;;;5.30;;
3523;SDS011;1776;53.330;11.498;2023-01-01T03:59:41;10.60;;;4.93;;
3523;SDS011;1776;53.330;11.498;2023-01-01T04:02:14;8.50;;;4.90;;
3523;SDS011;1776;53.330;11.498;2023-01-01T04:04:44;9.20;;;5.67;;
3523;SDS011;1776;53.330;11.498;2023-01-01T04:07:11;10.40;;;6.33;;
3523;SDS011;1776;53.330;11.498;2023-01-01T04:09:37;12.70;;;5.17;;
3523;SDS011;1776;53.330;11.498;2023-01-01T04:12:05;11.37;;;5.70;;
3523;SDS011;1776;53.330;11.498;2023-01-01T04:17:00;11.40;;;5.87;;
3523;SDS011;1776;53.330;11.498;2023-01-01T04:19:27;11.80;;;6.23;;
3523;SDS011;1776;53.330;11.498;2023-01-01T04:21:52;15.77;;;6.13;;
3523;SDS011;1776;53.330;11.498;2023-01-01T04:24:18;12.40;;;5.77;;
3523;SDS011;1776;53.330;11.498;2023-01-01T04:26:44;12.07;;;5.53;;
3523;SDS011;1776;53.330;11.498;2023-01-01T04:29:09;8.00;;;6.00;;
3523;SDS011;1776;53.330;11.498;2023-01-01T04:31:34;10.60;;;5.57;;
3523;SDS011;1776;53.330;11.498;2023-01-01T04:34:00;15.37;;;7.73;;
3523;SDS011;1776;53.330;11.498;2023-01-01T04:36:25;13.57;;;5.67;;
3523;SDS011;1776;53.330;11.498;2023-01-01T04:38:50;12.60;;;6.10;;
3523;SDS011;1776;53.330;11.498;2023-01-01T04:41:16;21.63;;;8.13;;
3523;SDS011;1776;53.330;11.498;2023-01-01T04:43:41;21.13;;;6.70;;
3523;SDS011;1776;53.330;11.498;2023-01-01T04:46:10;16.30;;;5.50;;
3523;SDS011;1776;53.330;11.498;2023-01-01T04:48:35;13.00;;;6.83;;
3523;SDS011;1776;53.330;11.498;2023-01-01T04:51:01;12.47;;;6.93;;
3523;SDS011;1776;53.330;11.498;2023-01-01T04:53:29;11.97;;;6.40;;
3523;SDS011;1776;53.330;11.498;2023-01-01T04:56:05;18.73;;;6.40;;
3523;SDS011;1776;53.330;11.498;2023-01-01T04:58:38;17.83;;;7.60;;
3523;SDS011;1776;53.330;11.498;2023-01-01T05:01:05;15.20;;;7.30;;
3523;SDS011;1776;53.330;11.498;2023-01-01T05:03:31;16.63;;;8.50;;
3523;SDS011;1776;53.330;11.498;2023-01-01T05:06:03;16.20;;;7.30;;
3523;SDS011;1776;53.330;11.498;2023-01-01T05:08:30;11.20;;;6.17;;
3523;SDS011;1776;53.330;11.498;2023-01-01T05:11:02;13.43;;;7.13;;
3523;SDS011;1776;53.330;11.498;2023-01-01T05:13:29;10.03;;;6.73;;
3523;SDS011;1776;53.330;11.498;2023-01-01T05:15:55;20.37;;;8.30;;
3523;SDS011;1776;53.330;11.498;2023-01-01T05:18:20;15.03;;;7.40;;
3523;SDS011;1776;53.330;11.498;2023-01-01T05:20:46;13.40;;;7.40;;
3523;SDS011;1776;53.330;11.498;2023-01-01T05:23:11;12.83;;;6.80;;
3523;SDS011;1776;53.330;11.498;2023-01-01T05:25:36;14.10;;;7.23;;
3523;SDS011;1776;53.330;11.498;2023-01-01T05:28:02;17.33;;;8.50;;
3523;SDS011;1776;53.330;11.498;2023-01-01T05:30:27;14.60;;;6.80;;
3523;SDS011;1776;53.330;11.498;2023-01-01T05:32:52;14.93;;;6.70;;
3523;SDS011;1776;53.330;11.498;2023-01-01T05:35:18;12.20;;;7.40;;
3523;SDS011;1776;53.330;11.498;2023-01-01T05:37:43;12.67;;;6.23;;
3523;SDS011;1776;53.330;11.498;2023-01-01T05:40:08;17.77;;;7.47;;
3523;SDS011;1776;53.330;11.498;2023-01-01T05:42:34;18.23;;;6.00;;
3523;SDS011;1776;53.330;11.498;2023-01-01T05:45:00;13.13;;;6.97;;
3523;SDS011;1776;53.330;11.498;2023-01-01T05:47:26;13.90;;;6.00;;
3523;SDS011;1776;53.330;11.498;2023-01-01T05:49:52;19.50;;;7.60;;
3523;SDS011;1776;53.330;11.498;2023-01-01T05:52:17;11.40;;;6.30;;
3523;SDS011;1776;53.330;11.498;2023-01-01T05:54:42;9.37;;;5.70;;
3523;SDS011;1776;53.330;11.498;2023-01-01T05:57:08;8.33;;;5.87;;
3523;SDS011;1776;53.330;11.498;2023-01-01T05:59:33;8.63;;;5.47;;
3523;SDS011;1776;53.330;11.498;2023-01-01T06:01:58;10.33;;;6.37;;
3523;SDS011;1776;53.330;11.498;2023-01-01T06:04:23;11.53;;;5.70;;
3523;SDS011;1776;53.330;11.498;2023-01-01T06:06:48;15.27;;;5.93;;
3523;SDS011;1776;53.330;11.498;2023-01-01T06:09:14;16.70;;;6.50;;
3523;SDS011;1776;53.330;11.498;2023-01-01T06:11:39;8.60;;;4.93;;
3523;SDS011;1776;53.330;11.498;2023-01-01T06:14:04;12.33;;;5.87;;
3523;SDS011;1776;53.330;11.498;2023-01-01T06:16:30;11.83;;;4.83;;
3523;SDS011;1776;53.330;11.498;2023-01-01T06:18:55;9.60;;;5.40;;
3523;SDS011;1776;53.330;11.498;2023-01-01T06:21:21;11.83;;;5.30;;
3523;SDS011;1776;53.330;11.498;2023-01-01T06:23:49;9.77;;;5.40;;
3523;SDS011;1776;53.330;11.498;2023-01-01T06:26:19;25.27;;;6.53;;
3523;SDS011;1776;53.330;11.498;2023-01-01T06:28:46;6.90;;;4.70;;
3523;SDS011;1776;53.330;11.498;2023-01-01T06:31:13;12.27;;;5.17;;
3523;SDS011;1776;53.330;11.498;2023-01-01T06:33:40;11.20;;;4.53;;
3523;SDS011;1776;53.330;11.498;2023-01-01T06:36:07;8.43;;;4.97;;
3523;SDS011;1776;53.330;11.498;2023-01-01T06:38:34;13.73;;;5.40;;
3523;SDS011;1776;53.330;11.498;2023-01-01T06:41:02;12.50;;;4.70;;
3523;SDS011;1776;53.330;11.498;2023-01-01T06:43:30;9.53;;;4.63;;
3523;SDS011;1776;53.330;11.498;2023-01-01T06:48:29;6.53;;;3.93;;
3523;SDS011;1776;53.330;11.498;2023-01-01T06:50:56;5.37;;;3.87;;
3523;SDS011;1776;53.330;11.498;2023-01-01T06:53:25;13.50;;;4.17;;
3523;SDS011;1776;53.330;11.498;2023-01-01T06:55:51;11.93;;;5.20;;
3523;SDS011;1776;53.330;11.498;2023-01-01T06:58:16;5.20;;;3.80;;
3523;SDS011;1776;53.330;11.498;2023-01-01T07:00:42;10.50;;;4.30;;
3523;SDS011;1776;53.330;11.498;2023-01-01T07:03:10;10.70;;;4.57;;
3523;SDS011;1776;53.330;11.498;2023-01-01T07:05:35;12.37;;;4.20;;
3523;SDS011;1776;53.330;11.498;2023-01-01T07:08:00;6.97;;;3.33;;
3523;SDS011;1776;53.330;11.498;2023-01-01T07:10:26;7.47;;;4.00;;
3523;SDS011;1776;53.330;11.498;2023-01-01T07:12:51;8.13;;;3.53;;
3523;SDS011;1776;53.330;11.498;2023-01-01T07:15:16;10.23;;;3.77;;
3523;SDS011;1776;53.330;11.498;2023-01-01T07:17:41;6.93;;;3.80;;
3523;SDS011;1776;53.330;11.498;2023-01-01T07:20:07;4.60;;;3.27;;
3523;SDS011;1776;53.330;11.498;2023-01-01T07:22:32;7.80;;;2.83;;
3523;SDS011;1776;53.330;11.498;2023-01-01T07:24:59;8.97;;;3.00;;
3523;SDS011;1776;53.330;11.498;2023-01-01T07:27:24;7.07;;;3.50;;
3523;SDS011;1776;53.330;11.498;2023-01-01T07:29:49;4.80;;;3.00;;
3523;SDS011;1776;53.330;11.498;2023-01-01T07:32:14;4.30;;;2.80;;
3523;SDS011;1776;53.330;11.498;2023-01-01T07:34:40;5.47;;;2.90;;
3523;SDS011;1776;53.330;11.498;2023-01-01T07:37:05;6.37;;;3.07;;
3523;SDS011;1776;53.330;11.498;2023-01-01T07:39:30;5.07;;;2.97;;
3523;SDS011;1776;53.330;11.498;2023-01-01T07:41:55;6.73;;;3.43;;
3523;SDS011;1776;53.330;11.498;2023-01-01T07:44:21;3.43;;;2.50;;
3523;SDS011;1776;53.330;11.498;2023-01-01T07:46:46;5.30;;;2.77;;
3523;SDS011;1776;53.330;11.498;2023-01-01T07:49:11;4.87;;;2.77;;
3523;SDS011;1776;53.330;11.498;2023-01-01T07:51:36;12.17;;;3.37;;
3523;SDS011;1776;53.330;11.498;2023-01-01T07:54:02;7.47;;;3.17;;
3523;SDS011;1776;53.330;11.498;2023-01-01T07:56:27;11.80;;;3.30;;
3523;SDS011;1776;53.330;11.498;2023-01-01T07:58:52;7.33;;;3.20;;
3523;SDS011;1776;53.330;11.498;2023-01-01T08:01:18;4.20;;;3.47;;
3523;SDS011;1776;53.330;11.498;2023-01-01T08:03:43;6.77;;;2.00;;
3523;SDS011;1776;53.330;11.498;2023-01-01T08:06:09;4.20;;;2.50;;
3523;SDS011;1776;53.330;11.498;2023-01-01T08:08:36;5.13;;;2.73;;
3523;SDS011;1776;53.330;11.498;2023-01-01T08:11:01;3.13;;;2.30;;
3523;SDS011;1776;53.330;11.498;2023-01-01T08:13:27;5.23;;;2.40;;
3523;SDS011;1776;53.330;11.498;2023-01-01T08:15:52;4.10;;;2.57;;
3523;SDS011;1776;53.330;11.498;2023-01-01T08:18:19;8.90;;;2.00;;
3523;SDS011;1776;53.330;11.498;2023-01-01T08:20:45;4.60;;;2.27;;
3523;SDS011;1776;53.330;11.498;2023-01-01T08:23:10;7.20;;;2.67;;
3523;SDS011;1776;53.330;11.498;2023-01-01T08:25:35;8.33;;;2.33;;
3523;SDS011;1776;53.330;11.498;2023-01-01T08:28:01;3.23;;;1.73;;
3523;SDS011;1776;53.330;11.498;2023-01-01T08:30:26;3.17;;;2.47;;
3523;SDS011;1776;53.330;11.498;2023-01-01T08:32:51;7.17;;;2.83;;
3523;SDS011;1776;53.330;11.498;2023-01-01T08:35:17;2.87;;;2.00;;
3523;SDS011;1776;53.330;11.498;2023-01-01T08:37:42;8.80;;;2.23;;
3523;SDS011;1776;53.330;11.498;2023-01-01T08:40:08;5.07;;;1.60;;
3523;SDS011;1776;53.330;11.498;2023-01-01T08:42:35;7.63;;;3.30;;
3523;SDS011;1776;53.330;11.498;2023-01-01T08:45:00;6.70;;;2.90;;
3523;SDS011;1776;53.330;11.498;2023-01-01T08:47:26;5.93;;;1.87;;
3523;SDS011;1776;53.330;11.498;2023-01-01T08:49:51;3.37;;;1.33;;
3523;SDS011;1776;53.330;11.498;2023-01-01T08:52:17;3.67;;;1.90;;
3523;SDS011;1776;53.330;11.498;2023-01-01T08:54:43;7.93;;;1.80;;
3523;SDS011;1776;53.330;11.498;2023-01-01T08:57:08;4.20;;;1.87;;
3523;SDS011;1776;53.330;11.498;2023-01-01T08:59:34;5.87;;;1.53;;
3523;SDS011;1776;53.330;11.498;2023-01-01T09:01:59;3.00;;;1.80;;
3523;SDS011;1776;53.330;11.498;2023-01-01T09:04:25;3.63;;;1.47;;
3523;SDS011;1776;53.330;11.498;2023-01-01T09:06:50;4.87;;;2.10;;
3523;SDS011;1776;53.330;11.498;2023-01-01T09:09:15;2.30;;;1.53;;
3523;SDS011;1776;53.330;11.498;2023-01-01T09:11:48;6.53;;;1.83;;
3523;SDS011;1776;53.330;11.498;2023-01-01T09:14:18;7.33;;;2.17;;
3523;SDS011;1776;53.330;11.498;2023-01-01T09:16:44;4.37;;;2.60;;
3523;SDS011;1776;53.330;11.498;2023-01-01T09:19:10;2.70;;;2.00;;
3523;SDS011;1776;53.330;11.498;2023-01-01T09:21:35;4.40;;;1.50;;
3523;SDS011;1776;53.330;11.498;2023-01-01T09:24:00;2.53;;;1.33;;
3523;SDS011;1776;53.330;11.498;2023-01-01T09:26:26;3.77;;;1.47;;
3523;SDS011;1776;53.330;11.498;2023-01-01T09:28:51;2.70;;;1.57;;
3523;SDS011;1776;53.330;11.498;2023-01-01T09:31:16;4.53;;;2.27;;
3523;SDS011;1776;53.330;11.498;2023-01-01T09:33:42;7.70;;;2.10;;
3523;SDS011;1776;53.330;11.498;2023-01-01T09:36:14;1.53;;;1.10;;
3523;SDS011;1776;53.330;11.498;2023-01-01T09:38:51;5.73;;;1.60;;
3523;SDS011;1776;53.330;11.498;2023-01-01T09:46:38;4.50;;;2.17;;
3523;SDS011;1776;53.330;11.498;2023-01-01T09:49:05;5.33;;;1.80;;
3523;SDS011;1776;53.330;11.498;2023-01-01T09:51:37;8.60;;;1.87;;
3523;SDS011;1776;53.330;11.498;2023-01-01T09:54:23;5.83;;;2.10;;
3523;SDS011;1776;53.330;11.498;2023-01-01T09:56:54;5.97;;;2.17;;
3523;SDS011;1776;53.330;11.498;2023-01-01T09:59:21;4.27;;;1.40;;
3523;SDS011;1776;53.330;11.498;2023-01-01T10:15:25;6.10;;;1.97;;
3523;SDS011;1776;53.330;11.498;2023-01-01T10:17:57;4.20;;;1.37;;
3523;SDS011;1776;53.330;11.498;2023-01-01T10:20:25;7.97;;;2.40;;
3523;SDS011;1776;53.330;11.498;2023-01-01T10:22:58;7.13;;;2.70;;
3523;SDS011;1776;53.330;11.498;2023-01-01T10:25:28;5.57;;;2.30;;
3523;SDS011;1776;53.330;11.498;2023-01-01T10:28:01;2.90;;;1.73;;
3523;SDS011;1776;53.330;11.498;2023-01-01T10:30:30;6.17;;;1.50;;
3523;SDS011;1776;53.330;11.498;2023-01-01T10:32:56;3.73;;;1.23;;
3523;SDS011;1776;53.330;11.498;2023-01-01T10:35:23;13.03;;;2.00;;
3523;SDS011;1776;53.330;11.498;2023-01-01T10:37:58;6.57;;;1.50;;
3523;SDS011;1776;53.330;11.498;2023-01-01T10:40:25;6.83;;;2.27;;
3523;SDS011;1776;53.330;11.498;2023-01-01T10:42:59;8.37;;;1.83;;
3523;SDS011;1776;53.330;11.498;2023-01-01T10:45:37;5.10;;;1.77;;
3523;SDS011;1776;53.330;11.498;2023-01-01T10:53:26;2.07;;;1.20;;
3523;SDS011;1776;53.330;11.498;2023-01-01T10:56:05;4.03;;;1.23;;
3523;SDS011;1776;53.330;11.498;2023-01-01T10:58:45;3.20;;;1.63;;
3523;SDS011;1776;53.330;11.498;2023-01-01T11:09:05;5.00;;;1.50;;
3523;SDS011;1776;53.330;11.498;2023-01-01T11:11:54;4.33;;;1.10;;
3523;SDS011;1776;53.330;11.498;2023-01-01T11:14:34;3.20;;;1.30;;
3523;SDS011;1776;53.330;11.498;2023-01-01T11:17:06;5.70;;;1.50;;
3523;SDS011;1776;53.330;11.498;2023-01-01T11:19:34;4.17;;;1.40;;
3523;SDS011;1776;53.330;11.498;2023-01-01T11:22:02;5.07;;;1.10;;
3523;SDS011;1776;53.330;11.498;2023-01-01T11:24:29;1.63;;;1.23;;
3523;SDS011;1776;53.330;11.498;2023-01-01T11:29:39;7.13;;;1.80;;
3523;SDS011;1776;53.330;11.498;2023-01-01T11:32:05;2.80;;;0.93;;
3523;SDS011;1776;53.330;11.498;2023-01-01T11:34:36;2.10;;;1.40;;
3523;SDS011;1776;53.330;11.498;2023-01-01T11:39:42;1.67;;;1.07;;
3523;SDS011;1776;53.330;11.498;2023-01-01T11:42:17;2.40;;;1.10;;
3523;SDS011;1776;53.330;11.498;2023-01-01T11:44:49;3.50;;;1.57;;
3523;SDS011;1776;53.330;11.498;2023-01-01T11:47:22;1.33;;;1.23;;
3523;SDS011;1776;53.330;11.498;2023-01-01T11:49:58;4.47;;;1.57;;
3523;SDS011;1776;53.330;11.498;2023-01-01T11:52:39;3.90;;;1.33;;
3523;SDS011;1776;53.330;11.498;2023-01-01T11:55:13;1.77;;;1.67;;
3523;SDS011;1776;53.330;11.498;2023-01-01T12:00:41;4.00;;;1.17;;
3523;SDS011;1776;53.330;11.498;2023-01-01T12:05:53;4.20;;;1.20;;
3523;SDS011;1776;53.330;11.498;2023-01-01T12:08:31;3.27;;;1.53;;
3523;SDS011;1776;53.330;11.498;2023-01-01T12:11:06;2.87;;;1.47;;
3523;SDS011;1776;53.330;11.498;2023-01-01T12:13:43;3.77;;;1.27;;
3523;SDS011;1776;53.330;11.498;2023-01-01T12:16:17;4.13;;;1.30;;
3523;SDS011;1776;53.330;11.498;2023-01-01T12:21:49;4.87;;;1.57;;
3523;SDS011;1776;53.330;11.498;2023-01-01T12:24:18;5.73;;;1.50;;
3523;SDS011;1776;53.330;11.498;2023-01-01T12:32:38;2.17;;;1.03;;
3523;SDS011;1776;53.330;11.498;2023-01-01T12:35:29;4.20;;;1.40;;
3523;SDS011;1776;53.330;11.498;2023-01-01T12:38:18;2.40;;;1.40;;
3523;SDS011;1776;53.330;11.498;2023-01-01T12:43:47;3.93;;;1.30;;
3523;SDS011;1776;53.330;11.498;2023-01-01T12:54:31;3.03;;;1.87;;
3523;SDS011;1776;53.330;11.498;2023-01-01T12:59:36;2.30;;;1.43;;
3523;SDS011;1776;53.330;11.498;2023-01-01T13:02:11;1.23;;;0.93;;
3523;SDS011;1776;53.330;11.498;2023-01-01T13:04:41;4.20;;;1.90;;
3523;SDS011;1776;53.330;11.498;2023-01-01T13:07:07;2.63;;;1.33;;
3523;SDS011;1776;53.330;11.498;2023-01-01T13:09:38;5.93;;;1.40;;
3523;SDS011;1776;53.330;11.498;2023-01-01T13:12:08;1.67;;;1.23;;
3523;SDS011;1776;53.330;11.498;2023-01-01T13:14:37;7.33;;;2.37;;
3523;SDS011;1776;53.330;11.498;2023-01-01T13:17:04;4.53;;;1.30;;
3523;SDS011;1776;53.330;11.498;2023-01-01T13:19:40;2.83;;;1.10;;
3523;SDS011;1776;53.330;11.498;2023-01-01T13:25:05;5.67;;;1.50;;
3523;SDS011;1776;53.330;11.498;2023-01-01T13:44:10;3.93;;;1.43;;
3523;SDS011;1776;53.330;11.498;2023-01-01T13:52:40;2.90;;;1.03;;
3523;SDS011;1776;53.330;11.498;2023-01-01T13:55:33;2.60;;;1.40;;
3523;SDS011;1776;53.330;11.498;2023-01-01T14:03:27;2.87;;;1.10;;
3523;SDS011;1776;53.330;11.498;2023-01-01T14:06:02;3.67;;;1.60;;
3523;SDS011;1776;53.330;11.498;2023-01-01T14:08:35;3.23;;;1.30;;
3523;SDS011;1776;53.330;11.498;2023-01-01T14:11:02;3.97;;;1.67;;
3523;SDS011;1776;53.330;11.498;2023-01-01T14:13:41;5.17;;;1.47;;
3523;SDS011;1776;53.330;11.498;2023-01-01T14:16:07;5.07;;;1.50;;
3523;SDS011;1776;53.330;11.498;2023-01-01T14:18:39;3.47;;;1.10;;
3523;SDS011;1776;53.330;11.498;2023-01-01T14:21:11;3.53;;;1.10;;
3523;SDS011;1776;53.330;11.498;2023-01-01T14:23:39;6.60;;;1.60;;
3523;SDS011;1776;53.330;11.498;2023-01-01T14:26:10;3.97;;;1.40;;
3523;SDS011;1776;53.330;11.498;2023-01-01T14:28:37;3.53;;;1.30;;
3523;SDS011;1776;53.330;11.498;2023-01-01T14:31:04;3.53;;;1.70;;
3523;SDS011;1776;53.330;11.498;2023-01-01T14:33:35;2.57;;;1.03;;
3523;SDS011;1776;53.330;11.498;2023-01-01T14:36:05;3.70;;;1.40;;
3523;SDS011;1776;53.330;11.498;2023-01-01T14:38:43;5.33;;;1.60;;
3523;SDS011;1776;53.330;11.498;2023-01-01T14:43:42;5.07;;;1.50;;
3523;SDS011;1776;53.330;11.498;2023-01-01T14:46:14;2.77;;;1.27;;
3523;SDS011;1776;53.330;11.498;2023-01-01T14:48:42;3.83;;;1.30;;
3523;SDS011;1776;53.330;11.498;2023-01-01T14:51:11;2.70;;;1.67;;
3523;SDS011;1776;53.330;11.498;2023-01-01T14:53:42;8.50;;;1.27;;
3523;SDS011;1776;53.330;11.498;2023-01-01T14:56:19;3.20;;;1.30;;
3523;SDS011;1776;53.330;11.498;2023-01-01T14:58:47;4.80;;;1.30;;
3523;SDS011;1776;53.330;11.498;2023-01-01T15:01:14;3.50;;;1.40;;
3523;SDS011;1776;53.330;11.498;2023-01-01T15:03:59;7.57;;;1.13;;
3523;SDS011;1776;53.330;11.498;2023-01-01T15:06:27;4.53;;;1.40;;
3523;SDS011;1776;53.330;11.498;2023-01-01T15:08:53;6.13;;;2.00;;
3523;SDS011;1776;53.330;11.498;2023-01-01T15:11:19;2.90;;;1.13;;
3523;SDS011;1776;53.330;11.498;2023-01-01T15:17:08;5.77;;;1.80;;
3523;SDS011;1776;53.330;11.498;2023-01-01T15:19:35;9.73;;;1.90;;
3523;SDS011;1776;53.330;11.498;2023-01-01T15:24:55;3.07;;;1.40;;
3523;SDS011;1776;53.330;11.498;2023-01-01T15:29:54;4.17;;;1.83;;
3523;SDS011;1776;53.330;11.498;2023-01-01T15:32:25;4.27;;;1.73;;
3523;SDS011;1776;53.330;11.498;2023-01-01T15:34:56;4.10;;;1.60;;
3523;SDS011;1776;53.330;11.498;2023-01-01T15:40:43;8.03;;;1.80;;
3523;SDS011;1776;53.330;11.498;2023-01-01T15:45:27;2.67;;;1.30;;
3523;SDS011;1776;53.330;11.498;2023-01-01T15:47:55;6.23;;;1.77;;
3523;SDS011;1776;53.330;11.498;2023-01-01T15:50:29;4.60;;;2.00;;
3523;SDS011;1776;53.330;11.498;2023-01-01T15:53:08;7.40;;;2.10;;
3523;SDS011;1776;53.330;11.498;2023-01-01T15:55:41;7.93;;;1.87;;
3523;SDS011;1776;53.330;11.498;2023-01-01T15:58:12;6.10;;;2.50;;
3523;SDS011;1776;53.330;11.498;2023-01-01T16:00:53;4.50;;;1.93;;
3523;SDS011;1776;53.330;11.498;2023-01-01T16:03:21;6.37;;;1.87;;
3523;SDS011;1776;53.330;11.498;2023-01-01T16:05:50;4.00;;;1.80;;
3523;SDS011;1776;53.330;11.498;2023-01-01T16:08:16;6.27;;;1.80;;
3523;SDS011;1776;53.330;11.498;2023-01-01T16:10:44;4.00;;;2.33;;
3523;SDS011;1776;53.330;11.498;2023-01-01T16:13:09;7.13;;;3.17;;
3523;SDS011;1776;53.330;11.498;2023-01-01T16:15:36;4.47;;;2.53;;
3523;SDS011;1776;53.330;11.498;2023-01-01T16:18:11;7.63;;;2.40;;
3523;SDS011;1776;53.330;11.498;2023-01-01T16:20:39;5.13;;;2.00;;
3523;SDS011;1776;53.330;11.498;2023-01-01T16:23:04;7.60;;;2.40;;
3523;SDS011;1776;53.330;11.498;2023-01-01T16:25:29;4.77;;;2.80;;
3523;SDS011;1776;53.330;11.498;2023-01-01T16:27:55;10.13;;;5.40;;
3523;SDS011;1776;53.330;11.498;2023-01-01T16:30:20;7.70;;;3.77;;
3523;SDS011;1776;53.330;11.498;2023-01-01T16:32:49;7.63;;;4.03;;
3523;SDS011;1776;53.330;11.498;2023-01-01T16:35:15;7.10;;;3.30;;
3523;SDS011;1776;53.330;11.498;2023-01-01T16:37:40;4.70;;;3.30;;
3523;SDS011;1776;53.330;11.498;2023-01-01T16:40:06;5.77;;;2.40;;
3523;SDS011;1776;53.330;11.498;2023-01-01T16:42:32;4.60;;;2.60;;
3523;SDS011;1776;53.330;11.498;2023-01-01T16:44:57;5.00;;;2.40;;
3523;SDS011;1776;53.330;11.498;2023-01-01T16:47:22;6.20;;;2.20;;
3523;SDS011;1776;53.330;11.498;2023-01-01T16:49:48;5.47;;;2.83;;
3523;SDS011;1776;53.330;11.498;2023-01-01T16:52:13;14.03;;;2.80;;
3523;SDS011;1776;53.330;11.498;2023-01-01T16:54:39;3.30;;;2.17;;
3523;SDS011;1776;53.330;11.498;2023-01-01T16:57:04;12.40;;;5.67;;
3523;SDS011;1776;53.330;11.498;2023-01-01T16:59:29;6.70;;;3.83;;
3523;SDS011;1776;53.330;11.498;2023-01-01T17:01:55;10.37;;;4.80;;
3523;SDS011;1776;53.330;11.498;2023-01-01T17:04:20;8.93;;;5.73;;
3523;SDS011;1776;53.330;11.498;2023-01-01T17:06:45;7.73;;;4.97;;
3523;SDS011;1776;53.330;11.498;2023-01-01T17:09:11;16.30;;;7.47;;
3523;SDS011;1776;53.330;11.498;2023-01-01T17:11:37;6.63;;;4.13;;
3523;SDS011;1776;53.330;11.498;2023-01-01T17:14:03;7.20;;;3.67;;
3523;SDS011;1776;53.330;11.498;2023-01-01T17:16:30;5.60;;;3.30;;
3523;SDS011;1776;53.330;11.498;2023-01-01T17:18:56;6.17;;;2.83;;
3523;SDS011;1776;53.330;11.498;2023-01-01T17:21:21;4.10;;;3.17;;
3523;SDS011;1776;53.330;11.498;2023-01-01T17:23:46;10.13;;;3.33;;
3523;SDS011;1776;53.330;11.498;2023-01-01T17:28:40;7.20;;;3.60;;
3523;SDS011;1776;53.330;11.498;2023-01-01T17:31:07;5.33;;;4.30;;
3523;SDS011;1776;53.330;11.498;2023-01-01T17:33:35;9.80;;;3.10;;
3523;SDS011;1776;53.330;11.498;2023-01-01T17:36:00;9.63;;;3.40;;